createdAt,value
2022-09-06T00:00:14.314Z,61.41
2022-09-06T00:02:42.519Z,61.29
2022-09-06T00:05:10.996Z,61.52
2022-09-06T00:07:39.083Z,61.58
2022-09-06T00:10:09.248Z,61.55
2022-09-06T00:12:37.505Z,61.19
2022-09-06T00:15:06.634Z,61.43
2022-09-06T00:17:34.924Z,61.94
2022-09-06T00:20:03.600Z,61.61
2022-09-06T00:22:31.977Z,61.59
2022-09-06T00:25:00.113Z,61.58
2022-09-06T00:27:29.656Z,61.48
2022-09-06T00:29:57.759Z,61.53
2022-09-06T00:32:25.980Z,61.50
2022-09-06T00:34:54.105Z,61.27
2022-09-06T00:37:22.238Z,61.61
2022-09-06T00:39:50.421Z,61.92
2022-09-06T00:42:18.583Z,61.61
2022-09-06T00:44:48.068Z,61.52
2022-09-06T00:47:16.237Z,61.54
2022-09-06T00:49:45.662Z,61.32
2022-09-06T00:52:16.604Z,61.63
2022-09-06T00:54:44.793Z,61.53
2022-09-06T00:57:12.872Z,61.35
2022-09-06T00:59:41.222Z,61.50
2022-09-06T01:02:10.878Z,61.36
2022-09-06T01:04:39.777Z,61.48
2022-09-06T01:07:10.789Z,61.36
2022-09-06T01:09:47.599Z,61.34
2022-09-06T01:12:24.224Z,61.58
2022-09-06T01:15:00.308Z,61.70
2022-09-06T01:17:34.474Z,61.54
2022-09-06T01:20:32.446Z,61.54
2022-09-06T01:23:22.265Z,61.75
2022-09-06T01:26:01.212Z,61.61
2022-09-06T01:28:32.621Z,61.47
2022-09-06T01:31:10.121Z,61.68
2022-09-06T01:33:40.312Z,61.65
2022-09-06T01:36:10.197Z,61.55
2022-09-06T01:38:38.624Z,61.54
2022-09-06T01:41:06.960Z,61.67
2022-09-06T01:43:38.199Z,61.51
2022-09-06T01:46:10.032Z,61.57
2022-09-06T01:48:47.912Z,61.47
2022-09-06T01:51:18.109Z,61.40
2022-09-06T01:54:01.778Z,61.57
2022-09-06T01:56:34.282Z,61.73
2022-09-06T01:59:17.984Z,61.58
2022-09-06T02:01:49.063Z,61.39
2022-09-06T02:04:19.562Z,61.83
2022-09-06T02:06:50.434Z,61.42
2022-09-06T02:09:19.465Z,61.49
2022-09-06T02:11:49.728Z,61.58
2022-09-06T02:14:22.305Z,61.59
2022-09-06T02:16:50.617Z,61.46
2022-09-06T02:19:21.617Z,61.50
2022-09-06T02:21:50.281Z,61.54
2022-09-06T02:24:21.216Z,60.89
2022-09-06T02:26:49.383Z,61.58
2022-09-06T02:29:17.492Z,61.66
2022-09-06T02:31:48.578Z,61.61
2022-09-06T02:34:18.251Z,61.56
2022-09-06T02:36:46.557Z,61.50
2022-09-06T02:39:14.693Z,61.40
2022-09-06T02:41:43.272Z,61.38
2022-09-06T02:44:11.424Z,61.34
2022-09-06T02:46:39.531Z,61.32
2022-09-06T02:49:09.053Z,61.43
2022-09-06T02:51:38.281Z,61.49
2022-09-06T02:54:06.607Z,61.56
2022-09-06T02:56:36.559Z,61.29
2022-09-06T02:59:05.593Z,61.15
2022-09-06T03:01:33.872Z,61.64
2022-09-06T03:04:02.233Z,61.34
2022-09-06T03:06:31.769Z,61.45
2022-09-06T03:09:00.616Z,61.60
2022-09-06T03:11:28.804Z,61.36
2022-09-06T03:13:56.887Z,61.26
2022-09-06T03:16:25.153Z,61.21
2022-09-06T03:18:53.285Z,61.51
2022-09-06T03:21:21.368Z,61.38
2022-09-06T03:23:51.073Z,61.68
2022-09-06T03:26:19.173Z,61.64
2022-09-06T03:28:47.343Z,61.44
2022-09-06T03:31:15.515Z,61.45
2022-09-06T03:33:43.661Z,61.43
2022-09-06T03:36:11.805Z,61.24
2022-09-06T03:38:40.126Z,61.39
2022-09-06T03:41:09.649Z,61.45
2022-09-06T03:43:37.921Z,61.28
2022-09-06T03:46:06.171Z,61.20
2022-09-06T03:48:34.370Z,61.16
2022-09-06T03:51:02.484Z,61.34
2022-09-06T03:53:30.628Z,61.27
2022-09-06T03:55:58.820Z,61.11
2022-09-06T03:58:30.851Z,61.27
2022-09-06T04:01:04.544Z,61.54
2022-09-06T04:03:32.892Z,61.54
2022-09-06T04:06:01.072Z,61.20
2022-09-06T04:08:29.463Z,61.51
2022-09-06T04:10:57.950Z,61.17
2022-09-06T04:13:26.240Z,60.82
2022-09-06T04:15:55.760Z,61.35
2022-09-06T04:18:23.987Z,61.37
2022-09-06T04:20:53.231Z,61.22
2022-09-06T04:23:21.583Z,61.26
2022-09-06T04:25:49.801Z,61.22
2022-09-06T04:28:18.567Z,61.33
2022-09-06T04:30:46.740Z,61.41
2022-09-06T04:33:16.253Z,61.02
2022-09-06T04:35:44.356Z,61.18
2022-09-06T04:38:12.456Z,61.42
2022-09-06T04:40:40.598Z,61.25
2022-09-06T04:43:08.805Z,61.18
2022-09-06T04:45:37.016Z,61.20
2022-09-06T04:48:05.259Z,61.55
2022-09-06T04:50:34.780Z,61.32
2022-09-06T04:53:06.379Z,61.27
2022-09-06T04:55:34.653Z,61.08
2022-09-06T04:58:03.548Z,61.16
2022-09-06T05:00:32.489Z,61.49
2022-09-06T05:03:00.619Z,61.31
2022-09-06T05:05:28.804Z,61.13
2022-09-06T05:07:58.276Z,61.49
2022-09-06T05:10:26.587Z,61.04
2022-09-06T05:12:55.199Z,60.96
2022-09-06T05:15:23.855Z,60.80
2022-09-06T05:17:51.953Z,61.18
2022-09-06T05:20:20.116Z,60.94
2022-09-06T05:22:53.437Z,61.19
2022-09-06T05:25:23.001Z,60.93
2022-09-06T05:27:51.092Z,61.07
2022-09-06T05:30:19.776Z,60.98
2022-09-06T05:32:47.856Z,61.36
2022-09-06T05:35:16.172Z,61.20
2022-09-06T05:37:44.283Z,61.33
2022-09-06T05:40:12.731Z,61.19
2022-09-06T05:42:42.307Z,61.47
2022-09-06T05:45:11.156Z,61.58
2022-09-06T05:47:39.247Z,61.27
2022-09-06T05:50:08.109Z,61.58
2022-09-06T05:52:36.414Z,61.72
2022-09-06T05:55:04.762Z,61.62
2022-09-06T05:57:32.993Z,61.96
2022-09-06T06:00:02.551Z,61.77
2022-09-06T06:02:40.047Z,61.98
2022-09-06T06:05:09.126Z,61.89
2022-09-06T06:07:37.234Z,62.14
2022-09-06T06:10:06.072Z,62.07
2022-09-06T06:12:34.173Z,62.41
2022-09-06T06:15:05.802Z,62.33
2022-09-06T06:17:34.093Z,62.21
2022-09-06T06:20:02.239Z,62.27
2022-09-06T06:22:30.372Z,62.39
2022-09-06T06:24:58.500Z,62.45
2022-09-06T06:27:26.600Z,62.44
2022-09-06T06:29:54.749Z,62.67
2022-09-06T06:32:24.233Z,62.71
2022-09-06T06:34:52.392Z,62.83
2022-09-06T06:37:20.499Z,63.06
2022-09-06T06:39:48.635Z,62.82
2022-09-06T06:42:16.840Z,63.33
2022-09-06T06:44:53.900Z,63.37
2022-09-06T06:47:23.547Z,63.46
2022-09-06T06:49:51.871Z,63.27
2022-09-06T06:52:21.472Z,63.56
2022-09-06T06:54:50.181Z,63.41
2022-09-06T06:57:18.327Z,63.65
2022-09-06T06:59:46.495Z,63.61
2022-09-06T07:02:15.786Z,63.68
2022-09-06T07:04:45.481Z,63.71
2022-09-06T07:12:45.329Z,64.27
2022-09-06T07:15:13.893Z,64.14
2022-09-06T07:17:42.066Z,64.31
2022-09-06T07:22:44.861Z,64.17
2022-09-06T07:25:16.552Z,64.38
2022-09-06T07:27:49.488Z,64.31
2022-09-06T07:30:19.637Z,64.22
2022-09-06T07:32:47.949Z,64.33
2022-09-06T07:35:17.635Z,64.10
2022-09-06T07:37:52.568Z,64.32
2022-09-06T07:40:20.984Z,63.98
2022-09-06T07:42:49.204Z,64.58
2022-09-06T07:45:17.586Z,64.47
2022-09-06T07:48:00.883Z,64.70
2022-09-06T07:50:47.355Z,64.30
2022-09-06T07:53:30.856Z,64.53
2022-09-06T07:56:00.882Z,64.21
2022-09-06T07:58:29.681Z,64.54
2022-09-06T08:01:18.898Z,64.78
2022-09-06T08:03:47.771Z,64.88
2022-09-06T08:06:17.599Z,64.60
2022-09-06T08:09:01.149Z,64.79
2022-09-06T08:11:31.432Z,64.94
2022-09-06T08:14:00.288Z,64.70
2022-09-06T08:16:29.477Z,64.92
2022-09-06T08:18:58.544Z,64.77
2022-09-06T08:21:29.279Z,65.00
2022-09-06T08:23:58.373Z,64.76
2022-09-06T08:26:26.652Z,65.14
2022-09-06T08:28:55.942Z,64.47
2022-09-06T08:31:24.144Z,64.62
2022-09-06T08:33:52.780Z,64.90
2022-09-06T08:36:20.908Z,64.47
2022-09-06T08:38:50.428Z,64.63
2022-09-06T08:41:26.128Z,64.80
2022-09-06T08:46:46.832Z,64.21
2022-09-06T08:49:15.023Z,64.67
2022-09-06T08:52:06.870Z,64.61
2022-09-06T08:54:38.236Z,64.36
2022-09-06T08:57:10.893Z,64.73
2022-09-06T08:59:39.932Z,64.48
2022-09-06T09:02:14.799Z,64.28
2022-09-06T09:04:45.506Z,64.23
2022-09-06T09:07:36.877Z,64.27
2022-09-06T09:10:09.037Z,63.71
2022-09-06T09:12:39.952Z,64.13
2022-09-06T09:15:09.085Z,64.33
2022-09-06T09:17:37.202Z,64.53
2022-09-06T09:20:05.829Z,64.37
2022-09-06T09:22:34.108Z,64.46
2022-09-06T09:25:02.284Z,64.66
2022-09-06T09:27:31.833Z,64.56
2022-09-06T09:32:50.197Z,64.70
2022-09-06T09:35:33.906Z,64.56
2022-09-06T09:38:11.784Z,65.01
2022-09-06T09:40:41.913Z,64.78
2022-09-06T09:43:18.031Z,64.59
2022-09-06T09:46:18.410Z,64.58
2022-09-06T09:48:49.774Z,64.72
2022-09-06T09:51:27.134Z,64.75
2022-09-06T09:53:56.653Z,64.52
2022-09-06T09:56:36.031Z,64.53
2022-09-06T09:59:09.006Z,64.76
2022-09-06T10:01:37.171Z,64.73
2022-09-06T10:07:10.861Z,64.66
2022-09-06T10:09:41.667Z,64.83
2022-09-06T10:12:09.838Z,64.90
2022-09-06T10:14:43.673Z,65.26
2022-09-06T10:17:20.791Z,64.73
2022-09-06T10:19:49.047Z,64.83
2022-09-06T10:22:30.197Z,64.96
2022-09-06T10:25:19.937Z,64.71
2022-09-06T10:28:13.923Z,64.77
2022-09-06T10:30:46.185Z,64.89
2022-09-06T10:33:21.188Z,65.23
2022-09-06T10:35:49.327Z,64.75
2022-09-06T10:38:28.081Z,64.85
2022-09-06T10:41:00.224Z,64.96
2022-09-06T10:43:29.303Z,64.53
2022-09-06T10:46:01.321Z,64.86
2022-09-06T10:48:30.727Z,65.04
2022-09-06T10:50:59.659Z,64.73
2022-09-06T10:53:37.913Z,64.95
2022-09-06T10:56:08.708Z,64.87
2022-09-06T11:01:34.487Z,64.44
2022-09-06T11:04:06.772Z,64.99
2022-09-06T11:06:36.825Z,64.93
2022-09-06T11:09:09.217Z,65.10
2022-09-06T11:11:40.367Z,64.99
2022-09-06T11:14:10.160Z,64.85
2022-09-06T11:16:42.159Z,64.89
2022-09-06T11:19:11.345Z,64.86
2022-09-06T11:22:00.910Z,65.08
2022-09-06T11:24:34.975Z,64.91
2022-09-06T11:27:06.617Z,65.06
2022-09-06T11:29:35.572Z,64.94
2022-09-06T11:32:21.340Z,64.78
2022-09-06T11:34:53.291Z,64.96
2022-09-06T11:37:26.159Z,64.97
2022-09-06T11:43:11.529Z,64.95
2022-09-06T11:45:45.761Z,65.16
2022-09-06T11:48:44.739Z,64.80
2022-09-06T11:51:12.857Z,64.95
2022-09-06T11:54:06.956Z,65.06
2022-09-06T11:56:37.571Z,64.85
2022-09-06T11:59:07.960Z,64.81
2022-09-06T12:01:38.409Z,64.53
2022-09-06T12:04:12.012Z,65.20
2022-09-06T12:06:41.633Z,65.06
2022-09-06T12:09:29.657Z,64.73
2022-09-06T12:11:58.032Z,64.92
2022-09-06T12:14:31.229Z,64.93
2022-09-06T12:17:29.224Z,64.85
2022-09-06T12:20:06.927Z,64.44
2022-09-06T12:23:02.379Z,64.84
2022-09-06T12:25:56.135Z,64.82
2022-09-06T12:28:36.344Z,64.73
2022-09-06T12:31:26.199Z,64.52
2022-09-06T12:33:54.940Z,64.75
2022-09-06T12:36:29.844Z,64.80
2022-09-06T12:38:59.421Z,64.74
2022-09-06T12:41:28.417Z,64.97
2022-09-06T12:43:58.308Z,64.65
2022-09-06T12:46:26.768Z,65.37
2022-09-06T12:49:02.368Z,65.13
2022-09-06T12:51:31.917Z,64.77
2022-09-06T12:54:00.847Z,64.63
2022-09-06T12:56:29.516Z,64.87
2022-09-06T12:59:14.547Z,64.37
2022-09-06T13:01:43.035Z,65.17
2022-09-06T13:04:12.033Z,65.07
2022-09-06T13:06:43.272Z,65.27
2022-09-06T13:09:12.641Z,65.14
2022-09-06T13:11:44.137Z,65.02
2022-09-06T13:14:14.509Z,65.23
2022-09-06T13:16:45.283Z,64.84
2022-09-06T13:19:14.412Z,65.36
2022-09-06T13:21:44.855Z,65.28
2022-09-06T13:24:20.037Z,65.54
2022-09-06T13:26:48.432Z,65.24
2022-09-06T13:29:27.404Z,65.46
2022-09-06T13:31:57.032Z,65.14
2022-09-06T13:34:26.363Z,65.53
2022-09-06T13:36:57.554Z,65.29
2022-09-06T13:39:35.484Z,65.58
2022-09-06T13:42:05.955Z,65.50
2022-09-06T13:44:34.518Z,65.63
2022-09-06T13:47:02.708Z,65.65
2022-09-06T13:49:30.835Z,65.57
2022-09-06T13:52:02.087Z,65.77
2022-09-06T13:54:30.812Z,65.41
2022-09-06T13:56:59.044Z,65.25
2022-09-06T13:59:27.185Z,65.67
2022-09-06T14:02:00.603Z,65.79
2022-09-06T14:04:28.976Z,65.78
2022-09-06T14:06:57.448Z,65.95
2022-09-06T14:09:26.985Z,66.13
2022-09-06T14:11:55.206Z,65.89
2022-09-06T14:14:23.388Z,65.98
2022-09-06T14:16:51.557Z,66.01
2022-09-06T14:19:19.764Z,66.05
2022-09-06T14:21:47.904Z,65.86
2022-09-06T14:24:16.228Z,66.12
2022-09-06T14:26:45.767Z,66.12
2022-09-06T14:29:13.863Z,66.02
2022-09-06T14:31:42.089Z,66.07
2022-09-06T14:34:10.354Z,65.95
2022-09-06T14:36:38.633Z,65.96
2022-09-06T14:39:06.755Z,66.46
2022-09-06T14:41:35.069Z,66.09
2022-09-06T14:44:04.824Z,66.05
2022-09-06T14:46:33.068Z,65.90
2022-09-06T14:49:02.770Z,66.03
2022-09-06T14:51:31.110Z,65.96
2022-09-06T14:54:00.613Z,65.88
2022-09-06T14:56:29.480Z,65.81
2022-09-06T14:58:59.824Z,65.91
2022-09-06T15:01:34.167Z,66.16
2022-09-06T15:04:06.017Z,65.88
2022-09-06T15:06:34.988Z,66.16
2022-09-06T15:09:03.133Z,65.98
2022-09-06T15:11:32.496Z,66.17
2022-09-06T15:14:00.700Z,66.33
2022-09-06T15:16:30.301Z,66.00
2022-09-06T15:18:58.447Z,65.83
2022-09-06T15:21:26.914Z,66.06
2022-09-06T15:23:55.099Z,65.93
2022-09-06T15:26:23.284Z,66.11
2022-09-06T15:28:51.990Z,65.99
2022-09-06T15:31:20.477Z,66.12
2022-09-06T15:33:51.292Z,66.25
2022-09-06T15:36:19.633Z,66.18
2022-09-06T15:38:48.496Z,65.93
2022-09-06T15:41:17.875Z,66.06
2022-09-06T15:43:47.481Z,66.02
2022-09-06T15:46:15.773Z,66.06
2022-09-06T15:48:44.725Z,65.98
2022-09-06T15:51:15.963Z,65.88
2022-09-06T15:53:44.340Z,65.98
2022-09-06T15:56:13.988Z,66.08
2022-09-06T15:58:42.131Z,66.07
2022-09-06T16:01:11.600Z,65.94
2022-09-06T16:03:40.553Z,66.32
2022-09-06T16:06:25.307Z,66.05
2022-09-06T16:08:58.485Z,66.09
2022-09-06T16:11:27.668Z,65.74
2022-09-06T16:13:55.803Z,65.90
2022-09-06T16:16:24.295Z,66.07
2022-09-06T16:18:53.222Z,65.83
2022-09-06T16:21:24.022Z,65.86
2022-09-06T16:23:52.892Z,65.72
2022-09-06T16:26:22.923Z,66.09
2022-09-06T16:28:51.726Z,65.86
2022-09-06T16:31:20.692Z,66.12
2022-09-06T16:33:49.221Z,65.74
2022-09-06T16:36:17.487Z,65.96
2022-09-06T16:38:45.630Z,65.84
2022-09-06T16:41:15.665Z,65.82
2022-09-06T16:43:45.324Z,65.97
2022-09-06T16:46:13.701Z,66.10
2022-09-06T16:48:41.897Z,66.14
2022-09-06T16:51:11.296Z,65.65
2022-09-06T16:53:40.848Z,66.11
2022-09-06T16:56:09.451Z,65.96
2022-09-06T16:58:39.157Z,66.02
2022-09-06T17:01:09.663Z,66.07
2022-09-06T17:03:37.920Z,65.99
2022-09-06T17:06:06.877Z,66.02
2022-09-06T17:08:35.200Z,65.95
2022-09-06T17:11:03.629Z,65.99
2022-09-06T17:13:32.361Z,65.73
2022-09-06T17:16:21.848Z,66.04
2022-09-06T17:18:53.789Z,66.06
2022-09-06T17:21:22.465Z,66.19
2022-09-06T17:23:51.252Z,66.06
2022-09-06T17:26:19.801Z,65.82
2022-09-06T17:28:48.228Z,65.64
2022-09-06T17:31:16.684Z,65.82
2022-09-06T17:33:46.893Z,65.78
2022-09-06T17:36:21.377Z,66.02
2022-09-06T17:38:53.296Z,66.25
2022-09-06T17:41:24.343Z,66.21
2022-09-06T17:43:54.380Z,65.79
2022-09-06T17:46:27.917Z,65.94
2022-09-06T17:48:57.357Z,65.93
2022-09-06T17:51:27.140Z,65.95
2022-09-06T17:53:55.433Z,66.21
2022-09-06T17:56:24.269Z,65.74
2022-09-06T17:58:56.268Z,65.89
2022-09-06T18:01:25.251Z,65.92
2022-09-06T18:03:54.884Z,66.05
2022-09-06T18:06:25.133Z,65.76
2022-09-06T18:08:56.744Z,65.93
2022-09-06T18:11:26.269Z,66.28
2022-09-06T18:13:59.513Z,66.00
2022-09-06T18:16:28.003Z,66.00
2022-09-06T18:18:58.061Z,66.24
2022-09-06T18:21:26.804Z,66.31
2022-09-06T18:23:56.844Z,66.17
2022-09-06T18:26:25.121Z,65.96
2022-09-06T18:28:54.116Z,66.07
2022-09-06T18:31:23.347Z,65.89
2022-09-06T18:33:51.611Z,66.17
2022-09-06T18:36:19.855Z,66.22
2022-09-06T18:38:47.959Z,65.99
2022-09-06T18:41:35.175Z,66.12
2022-09-06T18:44:03.689Z,66.12
2022-09-06T18:46:32.151Z,66.06
2022-09-06T18:49:00.546Z,66.36
2022-09-06T18:51:28.769Z,65.97
2022-09-06T18:53:57.096Z,65.93
2022-09-06T18:56:27.574Z,65.96
2022-09-06T18:58:58.377Z,65.78
2022-09-06T19:01:27.980Z,66.00
2022-09-06T19:03:57.608Z,65.92
2022-09-06T19:06:26.241Z,66.00
2022-09-06T19:08:55.421Z,65.87
2022-09-06T19:11:23.972Z,65.77
2022-09-06T19:13:55.622Z,65.60
2022-09-06T19:16:24.971Z,65.62
2022-09-06T19:18:56.129Z,66.18
2022-09-06T19:21:27.934Z,65.63
2022-09-06T19:23:57.511Z,65.89
2022-09-06T19:26:27.429Z,65.74
2022-09-06T19:28:58.743Z,65.68
2022-09-06T19:31:28.399Z,65.70
2022-09-06T19:33:57.243Z,65.52
2022-09-06T19:36:26.569Z,65.39
2022-09-06T19:39:05.005Z,65.81
2022-09-06T19:41:34.903Z,65.39
2022-09-06T19:44:05.956Z,65.53
2022-09-06T19:46:35.371Z,65.40
2022-09-06T19:49:03.853Z,65.71
2022-09-06T19:51:33.225Z,65.53
2022-09-06T19:54:01.604Z,65.37
2022-09-06T19:56:32.760Z,65.36
2022-09-06T19:59:01.819Z,65.21
2022-09-06T20:01:32.781Z,65.25
2022-09-06T20:04:02.944Z,65.65
2022-09-06T20:06:31.646Z,65.26
2022-09-06T20:09:00.471Z,65.19
2022-09-06T20:11:29.641Z,65.22
2022-09-06T20:13:58.150Z,64.87
2022-09-06T20:16:26.779Z,65.42
2022-09-06T20:18:57.114Z,65.22
2022-09-06T20:21:26.552Z,65.04
2022-09-06T20:23:56.170Z,65.34
2022-09-06T20:26:25.259Z,65.03
2022-09-06T20:28:56.284Z,64.78
2022-09-06T20:31:25.118Z,65.24
2022-09-06T20:33:53.923Z,64.98
2022-09-06T20:36:24.402Z,64.93
2022-09-06T20:38:53.158Z,65.15
2022-09-06T20:41:23.069Z,64.89
2022-09-06T20:43:52.802Z,65.06
2022-09-06T20:46:22.697Z,65.04
2022-09-06T20:48:51.941Z,64.93
2022-09-06T20:51:21.241Z,64.78
2022-09-06T20:53:53.120Z,64.75
2022-09-06T20:56:22.276Z,64.97
2022-09-06T20:58:50.995Z,64.69
2022-09-06T21:01:22.707Z,64.69
2022-09-06T21:03:52.147Z,64.90
2022-09-06T21:06:20.979Z,64.92
2022-09-06T21:08:50.844Z,64.85
2022-09-06T21:11:22.337Z,64.64
2022-09-06T21:13:51.315Z,64.78
2022-09-06T21:16:24.271Z,64.62
2022-09-06T21:18:52.957Z,64.58
2022-09-06T21:21:21.939Z,64.66
2022-09-06T21:23:51.819Z,64.81
2022-09-06T21:26:20.303Z,64.71
2022-09-06T21:28:49.195Z,64.87
2022-09-06T21:31:18.393Z,64.56
2022-09-06T21:33:48.156Z,64.24
2022-09-06T21:36:17.345Z,64.71
2022-09-06T21:38:46.402Z,64.70
2022-09-06T21:41:17.112Z,64.53
2022-09-06T21:43:45.594Z,64.68
2022-09-06T21:46:14.817Z,64.77
2022-09-06T21:48:44.991Z,64.44
2022-09-06T21:51:14.319Z,63.97
2022-09-06T21:53:44.339Z,64.95
2022-09-06T21:56:12.997Z,64.71
2022-09-06T21:58:44.412Z,64.53
2022-09-06T22:01:12.801Z,64.35
2022-09-06T22:03:41.693Z,64.53
2022-09-06T22:06:10.419Z,64.51
2022-09-06T22:08:39.360Z,64.50
2022-09-06T22:11:11.360Z,64.27
2022-09-06T22:13:39.749Z,64.32
2022-09-06T22:16:10.078Z,64.15
2022-09-06T22:18:38.459Z,64.36
2022-09-06T22:21:07.799Z,64.26
2022-09-06T22:23:36.453Z,64.24
2022-09-06T22:26:05.156Z,64.39
2022-09-06T22:28:33.755Z,64.10
2022-09-06T22:31:02.379Z,63.81
2022-09-06T22:33:33.452Z,64.41
2022-09-06T22:36:01.732Z,64.33
2022-09-06T22:38:30.106Z,64.26
2022-09-06T22:40:58.676Z,64.53
2022-09-06T22:43:26.996Z,64.19
2022-09-06T22:45:55.389Z,63.90
2022-09-06T22:48:23.691Z,64.29
2022-09-06T22:50:53.486Z,63.96
2022-09-06T22:53:21.767Z,64.28
2022-09-06T22:55:50.028Z,64.19
2022-09-06T22:58:18.375Z,63.93
2022-09-06T23:00:46.746Z,64.28
2022-09-06T23:03:15.367Z,64.18
2022-09-06T23:05:43.812Z,64.05
2022-09-06T23:08:13.697Z,64.21
2022-09-06T23:10:42.548Z,64.09
2022-09-06T23:13:10.873Z,64.12
2022-09-06T23:15:41.092Z,64.20
2022-09-06T23:18:09.587Z,64.15
2022-09-06T23:20:38.457Z,64.08
2022-09-06T23:23:07.217Z,64.09
2022-09-06T23:25:39.508Z,64.02
2022-09-06T23:28:07.918Z,63.93
2022-09-06T23:30:38.201Z,64.03
2022-09-06T23:33:06.627Z,63.98
2022-09-06T23:35:34.931Z,64.14
2022-09-06T23:38:03.246Z,64.29
2022-09-06T23:40:31.482Z,63.98
2022-09-06T23:43:01.473Z,63.99
2022-09-06T23:45:29.861Z,63.96
2022-09-06T23:47:58.235Z,63.90
2022-09-06T23:50:26.715Z,63.92
2022-09-06T23:52:54.971Z,63.75
2022-09-06T23:55:23.289Z,63.72
2022-09-06T23:57:51.655Z,64.04
